createdAt,value
2023-01-19T00:01:08.665Z,98783.47
2023-01-19T00:03:37.141Z,98778.94
2023-01-19T00:06:06.343Z,98766.16
2023-01-19T00:08:34.985Z,98771.22
2023-01-19T00:11:03.396Z,98772.03
2023-01-19T00:13:30.935Z,98780.72
2023-01-19T00:15:59.573Z,98770.97
2023-01-19T00:18:27.470Z,98760.50
2023-01-19T00:20:55.258Z,98769.50
2023-01-19T00:23:23.168Z,98769.38
2023-01-19T00:25:51.334Z,98774.31
2023-01-19T00:28:19.344Z,98782.06
2023-01-19T00:30:47.155Z,98756.94
2023-01-19T00:33:15.410Z,98764.97
2023-01-19T00:35:43.176Z,98760.97
2023-01-19T00:38:11.870Z,98751.53
2023-01-19T00:40:39.796Z,98752.56
2023-01-19T00:43:07.399Z,98758.09
2023-01-19T00:45:35.139Z,98764.75
2023-01-19T00:48:03.002Z,98777.91
2023-01-19T00:50:32.069Z,98778.78
2023-01-19T00:53:01.473Z,98778.12
2023-01-19T00:55:30.508Z,98795.50
2023-01-19T00:57:58.350Z,98808.50
2023-01-19T01:00:26.492Z,98814.75
2023-01-19T01:02:54.629Z,98811.94
2023-01-19T01:05:22.435Z,98823.53
2023-01-19T01:07:50.802Z,98806.72
2023-01-19T01:10:21.207Z,98803.84
2023-01-19T01:13:20.554Z,98808.41
2023-01-19T01:15:37.114Z,98792.16
2023-01-19T01:18:04.684Z,98786.09
2023-01-19T01:20:34.725Z,98787.88
2023-01-19T01:23:03.667Z,98806.09
2023-01-19T01:25:31.605Z,98807.84
2023-01-19T01:27:59.111Z,98810.44
2023-01-19T01:30:26.938Z,98803.00
2023-01-19T01:32:54.966Z,98804.50
2023-01-19T01:35:22.444Z,98817.66
2023-01-19T01:37:50.313Z,98806.72
2023-01-19T01:40:19.391Z,98795.25
2023-01-19T01:42:46.960Z,98796.09
2023-01-19T01:45:29.889Z,98780.47
2023-01-19T01:48:10.876Z,98776.31
2023-01-19T01:51:25.292Z,98781.53
2023-01-19T01:54:09.348Z,98785.06
2023-01-19T01:56:43.816Z,98777.50
2023-01-19T01:59:29.458Z,98790.38
2023-01-19T02:02:18.896Z,98795.06
2023-01-19T02:04:50.702Z,98807.94
2023-01-19T02:07:43.115Z,98815.22
2023-01-19T02:10:29.754Z,98807.16
2023-01-19T02:13:15.933Z,98796.72
2023-01-19T02:15:45.172Z,98787.28
2023-01-19T02:18:12.708Z,98782.44
2023-01-19T02:20:43.502Z,98777.12
2023-01-19T02:23:17.002Z,98771.91
2023-01-19T02:25:44.689Z,98774.31
2023-01-19T02:28:12.950Z,98784.69
2023-01-19T02:30:41.289Z,98806.44
2023-01-19T02:33:09.174Z,98815.09
2023-01-19T02:35:38.068Z,98816.78
2023-01-19T02:38:06.616Z,98836.78
2023-01-19T02:40:34.511Z,98854.31
2023-01-19T02:43:03.416Z,98851.19
2023-01-19T02:45:31.215Z,98858.63
2023-01-19T02:47:58.926Z,98847.34
2023-01-19T02:50:49.236Z,98861.09
2023-01-19T02:53:47.746Z,98872.31
2023-01-19T02:56:25.096Z,98853.81
2023-01-19T02:59:30.098Z,98840.56
2023-01-19T03:02:02.187Z,98814.53
2023-01-19T03:04:37.489Z,98820.44
2023-01-19T03:07:28.922Z,98808.22
2023-01-19T03:10:07.095Z,98790.19
2023-01-19T03:12:42.808Z,98768.25
2023-01-19T03:15:23.269Z,98771.63
2023-01-19T03:17:52.109Z,98776.00
2023-01-19T03:20:25.613Z,98789.06
2023-01-19T03:22:59.308Z,98804.66
2023-01-19T03:25:28.329Z,98822.09
2023-01-19T03:27:57.723Z,98821.28
2023-01-19T03:30:29.178Z,98821.28
2023-01-19T03:33:01.706Z,98810.06
2023-01-19T03:35:32.300Z,98802.50
2023-01-19T03:38:01.309Z,98804.09
2023-01-19T03:40:30.691Z,98784.13
2023-01-19T03:43:00.219Z,98789.44
2023-01-19T03:45:28.302Z,98809.50
2023-01-19T03:47:55.889Z,98804.66
2023-01-19T03:50:27.284Z,98820.94
2023-01-19T03:53:22.704Z,98821.22
2023-01-19T03:55:51.544Z,98805.94
2023-01-19T03:58:19.342Z,98793.03
2023-01-19T04:00:47.011Z,98790.53
2023-01-19T04:03:16.492Z,98794.72
2023-01-19T04:05:44.621Z,98798.28
2023-01-19T04:08:13.035Z,98799.94
2023-01-19T04:10:40.915Z,98804.25
2023-01-19T04:13:08.567Z,98807.78
2023-01-19T04:15:36.180Z,98800.16
2023-01-19T04:18:05.256Z,98805.25
2023-01-19T04:20:34.044Z,98811.34
2023-01-19T04:23:02.426Z,98808.88
2023-01-19T04:25:30.450Z,98802.16
2023-01-19T04:27:58.545Z,98806.56
2023-01-19T04:30:27.530Z,98790.41
2023-01-19T04:32:58.756Z,98803.94
2023-01-19T04:35:26.552Z,98816.31
2023-01-19T04:37:54.233Z,98810.94
2023-01-19T04:40:22.336Z,98822.88
2023-01-19T04:42:50.292Z,98819.59
2023-01-19T04:45:18.113Z,98833.72
2023-01-19T04:47:45.934Z,98831.66
2023-01-19T04:50:13.457Z,98827.63
2023-01-19T04:52:40.984Z,98832.75
2023-01-19T04:55:09.625Z,98831.00
2023-01-19T04:57:37.164Z,98826.22
2023-01-19T05:00:06.924Z,98825.00
2023-01-19T05:02:35.061Z,98825.78
2023-01-19T05:05:03.329Z,98825.38
2023-01-19T05:07:30.934Z,98820.31
2023-01-19T05:09:58.779Z,98829.09
2023-01-19T05:12:26.456Z,98828.59
2023-01-19T05:14:53.941Z,98830.88
2023-01-19T05:17:22.551Z,98841.06
2023-01-19T05:19:50.047Z,98831.56
2023-01-19T05:22:17.692Z,98840.13
2023-01-19T05:24:45.592Z,98832.31
2023-01-19T05:27:13.102Z,98839.19
2023-01-19T05:29:40.837Z,98822.22
2023-01-19T05:32:09.223Z,98832.72
2023-01-19T05:34:37.072Z,98835.44
2023-01-19T05:37:04.746Z,98831.22
2023-01-19T05:39:33.537Z,98847.91
2023-01-19T05:42:01.136Z,98858.44
2023-01-19T05:44:28.763Z,98875.38
2023-01-19T05:46:56.570Z,98879.81
2023-01-19T05:49:24.340Z,98887.81
2023-01-19T05:51:52.322Z,98891.25
2023-01-19T05:54:20.278Z,98915.84
2023-01-19T05:56:47.865Z,98911.91
2023-01-19T05:59:17.554Z,98925.69
2023-01-19T06:01:45.965Z,98938.91
2023-01-19T06:04:14.207Z,98938.25
2023-01-19T06:06:41.800Z,98951.38
2023-01-19T06:09:09.624Z,98951.19
2023-01-19T06:11:38.358Z,98944.88
2023-01-19T06:14:05.963Z,98944.88
2023-01-19T06:16:33.663Z,98940.44
2023-01-19T06:19:01.618Z,98942.81
2023-01-19T06:21:29.323Z,98944.31
2023-01-19T06:23:56.932Z,98953.12
2023-01-19T06:26:25.543Z,98955.97
2023-01-19T06:28:53.283Z,98950.75
2023-01-19T06:31:21.007Z,98959.59
2023-01-19T06:33:48.910Z,98971.53
2023-01-19T06:36:16.475Z,98967.78
2023-01-19T06:38:44.409Z,98966.03
2023-01-19T06:41:12.541Z,98965.50
2023-01-19T06:43:40.172Z,98962.28
2023-01-19T06:46:07.913Z,98966.66
2023-01-19T06:48:35.902Z,98979.19
2023-01-19T06:51:03.444Z,98997.44
2023-01-19T06:53:30.951Z,99008.59
2023-01-19T06:56:01.233Z,99008.78
2023-01-19T06:58:29.522Z,99007.41
2023-01-19T07:01:04.263Z,99006.38
2023-01-19T07:03:33.362Z,99012.47
2023-01-19T07:06:06.687Z,99011.22
2023-01-19T07:08:38.457Z,99019.91
2023-01-19T07:11:22.266Z,99025.09
2023-01-19T07:13:56.945Z,99033.72
2023-01-19T07:16:24.851Z,99037.31
2023-01-19T07:18:52.354Z,99035.84
2023-01-19T07:21:20.529Z,99031.34
2023-01-19T07:23:49.416Z,99033.16
2023-01-19T07:26:19.973Z,99033.75
2023-01-19T07:28:48.889Z,99033.72
2023-01-19T07:31:17.919Z,99020.34
2023-01-19T07:33:46.657Z,99017.91
2023-01-19T07:36:15.098Z,99030.00
2023-01-19T07:38:42.788Z,99036.00
2023-01-19T07:41:11.094Z,99035.44
2023-01-19T07:43:40.136Z,99028.47
2023-01-19T07:46:11.281Z,99019.91
2023-01-19T07:48:41.905Z,99002.25
2023-01-19T07:51:12.953Z,99009.84
2023-01-19T07:53:42.051Z,99013.06
2023-01-19T07:56:10.395Z,98997.59
2023-01-19T07:58:38.998Z,98993.75
2023-01-19T08:01:11.643Z,98983.25
2023-01-19T08:03:40.229Z,98974.59
2023-01-19T08:06:07.839Z,98997.03
2023-01-19T08:08:35.450Z,98996.13
2023-01-19T08:11:03.300Z,99007.34
2023-01-19T08:13:30.856Z,99032.84
2023-01-19T08:15:58.394Z,99044.94
2023-01-19T08:18:26.244Z,99041.56
2023-01-19T08:20:54.580Z,99035.72
2023-01-19T08:23:22.305Z,99033.97
2023-01-19T08:25:50.134Z,99026.31
2023-01-19T08:28:19.008Z,99050.72
2023-01-19T08:30:53.988Z,99058.19
2023-01-19T08:33:23.303Z,99044.03
2023-01-19T08:35:52.960Z,99011.47
2023-01-19T08:38:20.762Z,99016.22
2023-01-19T08:40:48.889Z,98988.25
2023-01-19T08:43:17.465Z,99007.63
2023-01-19T08:45:52.417Z,99018.22
2023-01-19T08:48:24.741Z,99020.50
2023-01-19T08:50:53.179Z,99015.25
2023-01-19T08:53:23.735Z,99017.56
2023-01-19T08:55:59.847Z,99040.59
2023-01-19T08:58:28.456Z,99051.62
2023-01-19T09:00:56.426Z,99056.53
2023-01-19T09:03:24.175Z,99068.66
2023-01-19T09:05:52.212Z,99081.22
2023-01-19T09:08:20.415Z,99090.12
2023-01-19T09:10:49.803Z,99085.25
2023-01-19T09:13:19.194Z,99085.53
2023-01-19T09:15:47.206Z,99087.75
2023-01-19T09:18:17.954Z,99095.47
2023-01-19T09:20:49.105Z,99100.84
2023-01-19T09:23:18.801Z,99088.56
2023-01-19T09:25:47.381Z,99087.28
2023-01-19T09:28:17.903Z,99086.87
2023-01-19T09:30:45.856Z,99090.41
2023-01-19T09:33:15.522Z,99096.75
2023-01-19T09:35:44.255Z,99101.72
2023-01-19T09:38:13.191Z,99094.03
2023-01-19T09:41:00.112Z,99081.78
2023-01-19T09:43:47.909Z,99069.16
2023-01-19T09:46:20.297Z,99075.69
2023-01-19T09:48:52.186Z,99089.78
2023-01-19T09:51:20.766Z,99090.62
2023-01-19T09:54:04.271Z,99091.56
2023-01-19T09:56:32.240Z,99094.41
2023-01-19T09:59:00.817Z,99095.84
2023-01-19T10:01:40.597Z,99076.63
2023-01-19T10:04:22.173Z,99071.16
2023-01-19T10:06:50.398Z,99064.19
2023-01-19T10:09:33.450Z,99060.03
2023-01-19T10:12:23.411Z,99052.22
2023-01-19T10:15:05.158Z,99058.41
2023-01-19T10:17:42.347Z,99078.19
2023-01-19T10:20:18.080Z,99074.03
2023-01-19T10:22:49.199Z,99082.59
2023-01-19T10:25:23.872Z,99072.06
2023-01-19T10:27:51.892Z,99065.34
2023-01-19T10:30:25.390Z,99080.59
2023-01-19T10:32:53.713Z,99073.94
2023-01-19T10:35:26.203Z,99080.88
2023-01-19T10:37:59.228Z,99077.91
2023-01-19T10:40:51.070Z,99079.25
2023-01-19T10:43:40.140Z,99084.72
2023-01-19T10:46:17.378Z,99083.00
2023-01-19T10:48:48.467Z,99085.78
2023-01-19T10:51:17.617Z,99082.34
2023-01-19T10:53:55.428Z,99073.22
2023-01-19T10:56:40.425Z,99091.41
2023-01-19T10:59:33.354Z,99090.72
2023-01-19T11:02:16.776Z,99092.47
2023-01-19T11:04:48.212Z,99084.44
2023-01-19T11:07:27.600Z,99103.38
2023-01-19T11:10:17.502Z,99104.50
2023-01-19T11:13:07.648Z,99097.88
2023-01-19T11:15:45.142Z,99111.56
2023-01-19T11:18:27.440Z,99118.97
2023-01-19T11:21:06.529Z,99125.25
2023-01-19T11:23:42.004Z,99121.22
2023-01-19T11:26:32.178Z,99145.97
2023-01-19T11:29:01.922Z,99154.91
2023-01-19T11:31:31.369Z,99165.28
2023-01-19T11:34:20.883Z,99172.47
2023-01-19T11:37:03.375Z,99169.59
2023-01-19T11:39:35.413Z,99174.78
2023-01-19T11:42:05.332Z,99176.84
2023-01-19T11:44:43.843Z,99183.28
2023-01-19T11:47:49.294Z,99186.44
2023-01-19T11:50:32.042Z,99206.00
2023-01-19T11:53:38.645Z,99207.56
2023-01-19T11:56:11.423Z,99235.09
2023-01-19T11:58:48.014Z,99231.66
2023-01-19T12:01:22.424Z,99245.03
2023-01-19T12:03:54.765Z,99248.50
2023-01-19T12:06:26.736Z,99243.88
2023-01-19T12:09:11.902Z,99239.47
2023-01-19T12:11:47.409Z,99254.37
2023-01-19T12:14:25.269Z,99262.63
2023-01-19T12:16:58.159Z,99259.47
2023-01-19T12:19:37.366Z,99262.63
2023-01-19T12:22:14.452Z,99254.87
2023-01-19T12:24:49.749Z,99247.84
2023-01-19T12:27:26.275Z,99245.03
2023-01-19T12:30:32.891Z,99242.22
2023-01-19T12:33:20.475Z,99242.81
2023-01-19T12:36:24.370Z,99258.75
2023-01-19T12:39:03.573Z,99254.81
2023-01-19T12:41:39.207Z,99256.44
2023-01-19T12:44:09.750Z,99279.69
2023-01-19T12:46:58.156Z,99278.22
2023-01-19T12:49:35.076Z,99291.87
2023-01-19T12:52:25.035Z,99283.03
2023-01-19T12:55:02.258Z,99293.72
2023-01-19T12:57:52.012Z,99296.94
2023-01-19T13:00:26.735Z,99307.37
2023-01-19T13:03:07.189Z,99313.03
2023-01-19T13:05:41.983Z,99315.22
2023-01-19T13:08:12.723Z,99318.22
2023-01-19T13:11:05.491Z,99334.12
2023-01-19T13:13:50.424Z,99342.88
2023-01-19T13:16:18.104Z,99343.19
2023-01-19T13:18:55.110Z,99346.25
2023-01-19T13:21:39.418Z,99346.44
2023-01-19T13:24:12.093Z,99364.84
2023-01-19T13:27:03.674Z,99382.38
2023-01-19T13:29:38.130Z,99407.72
2023-01-19T13:32:18.811Z,99420.28
2023-01-19T13:34:52.134Z,99429.78
2023-01-19T13:37:24.522Z,99422.47
2023-01-19T13:39:54.197Z,99420.69
2023-01-19T13:42:33.536Z,99413.41
2023-01-19T13:45:07.267Z,99430.44
2023-01-19T13:47:42.151Z,99424.41
2023-01-19T13:50:19.864Z,99442.16
2023-01-19T13:52:49.027Z,99448.88
2023-01-19T13:55:18.841Z,99440.97
2023-01-19T13:57:48.691Z,99455.09
2023-01-19T14:00:19.130Z,99466.03
2023-01-19T14:03:00.245Z,99458.56
2023-01-19T14:05:38.159Z,99472.81
2023-01-19T14:08:11.302Z,99485.88
2023-01-19T14:10:44.527Z,99486.34
2023-01-19T14:13:17.400Z,99481.13
2023-01-19T14:19:21.431Z,99497.09
2023-01-19T14:22:05.300Z,99492.25
2023-01-19T14:24:33.366Z,99524.12
2023-01-19T14:27:18.906Z,99533.44
2023-01-19T14:29:50.038Z,99551.84
2023-01-19T14:32:22.956Z,99565.50
2023-01-19T14:35:05.755Z,99570.97
2023-01-19T14:37:38.064Z,99569.13
2023-01-19T14:40:08.924Z,99590.41
2023-01-19T14:43:00.120Z,99588.69
2023-01-19T14:45:30.950Z,99594.03
2023-01-19T14:48:03.736Z,99593.12
2023-01-19T14:50:39.699Z,99586.88
2023-01-19T14:53:19.515Z,99584.44
2023-01-19T14:55:52.972Z,99594.31
2023-01-19T14:58:22.844Z,99589.81
2023-01-19T15:00:50.781Z,99592.47
2023-01-19T15:03:18.305Z,99574.47
2023-01-19T15:05:46.717Z,99582.97
2023-01-19T15:08:27.785Z,99575.38
2023-01-19T15:10:56.483Z,99586.62
2023-01-19T15:13:25.919Z,99579.59
2023-01-19T15:15:53.827Z,99586.53
2023-01-19T15:18:26.590Z,99581.34
2023-01-19T15:21:02.806Z,99581.34
2023-01-19T15:23:31.392Z,99588.25
2023-01-19T15:26:00.780Z,99588.22
2023-01-19T15:28:28.707Z,99602.97
2023-01-19T15:30:58.504Z,99605.53
2023-01-19T15:33:29.496Z,99603.03
2023-01-19T15:35:57.740Z,99609.12
2023-01-19T15:38:26.629Z,99614.28
2023-01-19T15:40:54.217Z,99612.56
2023-01-19T15:43:22.049Z,99629.03
2023-01-19T15:45:51.031Z,99635.84
2023-01-19T15:48:19.989Z,99652.19
2023-01-19T15:50:48.079Z,99649.78
2023-01-19T15:53:18.406Z,99662.84
2023-01-19T15:55:49.556Z,99663.72
2023-01-19T15:58:18.629Z,99664.69
2023-01-19T16:00:46.345Z,99674.94
2023-01-19T16:03:14.417Z,99670.59
2023-01-19T16:05:43.390Z,99674.94
2023-01-19T16:08:11.810Z,99684.44
2023-01-19T16:10:40.861Z,99695.69
2023-01-19T16:13:10.513Z,99712.00
2023-01-19T16:15:39.333Z,99706.88
2023-01-19T16:18:07.504Z,99715.31
2023-01-19T16:20:35.122Z,99715.50
2023-01-19T16:23:14.608Z,99717.97
2023-01-19T16:25:43.329Z,99724.88
2023-01-19T16:28:11.047Z,99730.88
2023-01-19T16:30:38.727Z,99738.59
2023-01-19T16:33:06.689Z,99742.87
2023-01-19T16:35:34.263Z,99742.66
2023-01-19T16:38:01.804Z,99733.34
2023-01-19T16:40:29.650Z,99737.69
2023-01-19T16:42:57.928Z,99745.59
2023-01-19T16:45:25.497Z,99751.44
2023-01-19T16:47:53.261Z,99749.78
2023-01-19T16:50:20.867Z,99747.00
2023-01-19T16:52:50.704Z,99734.25
2023-01-19T16:55:18.635Z,99742.84
2023-01-19T16:57:46.401Z,99742.06
2023-01-19T17:00:14.391Z,99759.41
2023-01-19T17:02:43.190Z,99762.66
2023-01-19T17:05:11.322Z,99767.91
2023-01-19T17:07:39.027Z,99770.44
2023-01-19T17:10:07.886Z,99775.62
2023-01-19T17:12:35.408Z,99786.00
2023-01-19T17:15:03.113Z,99784.31
2023-01-19T17:17:31.226Z,99783.72
2023-01-19T17:20:00.184Z,99794.13
2023-01-19T17:22:28.072Z,99796.66
2023-01-19T17:24:56.586Z,99811.44
2023-01-19T17:27:24.474Z,99813.03
2023-01-19T17:29:52.329Z,99815.63
2023-01-19T17:32:20.892Z,99820.84
2023-01-19T17:34:49.598Z,99819.09
2023-01-19T17:37:17.127Z,99813.13
2023-01-19T17:39:45.181Z,99811.47
2023-01-19T17:42:12.767Z,99813.25
2023-01-19T17:44:42.418Z,99820.25
2023-01-19T17:47:10.519Z,99823.56
2023-01-19T17:49:38.170Z,99820.19
2023-01-19T17:52:06.067Z,99815.84
2023-01-19T17:54:34.401Z,99814.09
2023-01-19T17:57:02.011Z,99808.84
2023-01-19T17:59:29.856Z,99808.03
2023-01-19T18:01:58.177Z,99811.50
2023-01-19T18:04:26.249Z,99809.06
2023-01-19T18:06:54.109Z,99798.59
2023-01-19T18:09:21.696Z,99800.44
2023-01-19T18:11:49.864Z,99797.88
2023-01-19T18:14:17.613Z,99802.19
2023-01-19T18:16:45.323Z,99791.81
2023-01-19T18:19:13.523Z,99798.00
2023-01-19T18:21:42.760Z,99786.00
2023-01-19T18:24:10.654Z,99790.94
2023-01-19T18:26:38.977Z,99804.19
2023-01-19T18:29:07.102Z,99798.19
2023-01-19T18:31:35.029Z,99818.78
2023-01-19T18:34:03.276Z,99834.19
2023-01-19T18:36:34.401Z,99837.06
2023-01-19T18:39:02.651Z,99843.16
2023-01-19T18:41:30.836Z,99844.97
2023-01-19T18:43:59.613Z,99846.78
2023-01-19T18:46:27.618Z,99847.63
2023-01-19T18:48:55.787Z,99841.47
2023-01-19T18:51:23.673Z,99849.25
2023-01-19T18:53:51.661Z,99857.03
2023-01-19T18:56:19.453Z,99863.66
2023-01-19T18:58:47.608Z,99868.94
2023-01-19T19:01:27.416Z,99858.69
2023-01-19T19:03:56.908Z,99859.56
2023-01-19T19:06:26.998Z,99852.62
2023-01-19T19:08:57.143Z,99865.72
2023-01-19T19:11:26.543Z,99870.59
2023-01-19T19:13:56.917Z,99866.44
2023-01-19T19:16:26.189Z,99864.75
2023-01-19T19:18:53.837Z,99870.09
2023-01-19T19:21:24.054Z,99888.22
2023-01-19T19:23:54.117Z,99888.31
2023-01-19T19:26:23.633Z,99888.03
2023-01-19T19:28:51.515Z,99908.84
2023-01-19T19:31:22.220Z,99925.94
2023-01-19T19:33:51.228Z,99912.91
2023-01-19T19:36:21.031Z,99890.75
2023-01-19T19:38:49.927Z,99895.16
2023-01-19T19:41:20.855Z,99897.69
2023-01-19T19:43:49.597Z,99893.47
2023-01-19T19:46:20.090Z,99897.78
2023-01-19T19:48:49.010Z,99881.28
2023-01-19T19:51:22.753Z,99871.03
2023-01-19T19:53:51.952Z,99867.62
2023-01-19T19:56:22.209Z,99859.06
2023-01-19T19:58:51.102Z,99851.22
2023-01-19T20:01:21.563Z,99849.56
2023-01-19T20:03:49.973Z,99855.63
2023-01-19T20:06:21.222Z,99871.25
2023-01-19T20:08:49.688Z,99898.91
2023-01-19T20:11:20.420Z,99909.97
2023-01-19T20:13:48.712Z,99913.31
2023-01-19T20:16:18.870Z,99914.31
2023-01-19T20:18:50.822Z,99912.47
2023-01-19T20:21:20.032Z,99918.28
2023-01-19T20:23:48.984Z,99925.44
2023-01-19T20:26:19.094Z,99933.16
2023-01-19T20:28:47.597Z,99928.03
2023-01-19T20:31:22.411Z,99930.63
2023-01-19T20:33:51.683Z,99950.69
2023-01-19T20:36:19.714Z,99948.97
2023-01-19T20:38:47.256Z,99952.22
2023-01-19T20:41:15.639Z,99951.50
2023-01-19T20:43:43.518Z,99952.22
2023-01-19T20:46:12.042Z,99958.19
2023-01-19T20:48:42.152Z,99964.22
2023-01-19T20:51:12.369Z,99952.94
2023-01-19T20:53:41.458Z,99943.78
2023-01-19T20:56:14.241Z,99946.56
2023-01-19T20:58:45.778Z,99945.06
2023-01-19T21:01:16.785Z,99952.72
2023-01-19T21:03:48.200Z,99950.19
2023-01-19T21:06:18.930Z,99951.88
2023-01-19T21:08:49.716Z,99940.03
2023-01-19T21:11:21.357Z,99947.69
2023-01-19T21:13:51.363Z,99963.19
2023-01-19T21:16:18.931Z,99970.72
2023-01-19T21:18:46.511Z,99979.41
2023-01-19T21:21:28.980Z,99982.06
2023-01-19T21:23:57.716Z,99966.59
2023-01-19T21:26:25.816Z,99969.31
2023-01-19T21:28:53.683Z,99962.19
2023-01-19T21:31:27.071Z,99965.63
2023-01-19T21:33:56.277Z,99965.66
2023-01-19T21:36:24.744Z,99966.72
2023-01-19T21:38:52.882Z,99964.00
2023-01-19T21:41:20.845Z,99951.12
2023-01-19T21:43:48.419Z,99953.84
2023-01-19T21:46:21.443Z,99947.66
2023-01-19T21:48:49.460Z,99950.09
2023-01-19T21:51:16.947Z,99946.69
2023-01-19T21:53:44.435Z,99933.00
2023-01-19T21:56:12.252Z,99923.56
2023-01-19T21:58:39.759Z,99913.25
2023-01-19T22:01:13.733Z,99910.03
2023-01-19T22:03:42.256Z,99901.34
2023-01-19T22:06:12.606Z,99903.09
2023-01-19T22:08:40.988Z,99896.31
2023-01-19T22:11:11.104Z,99891.16
2023-01-19T22:13:38.920Z,99885.97
2023-01-19T22:16:12.141Z,99876.50
2023-01-19T22:18:42.075Z,99870.41
2023-01-19T22:21:21.413Z,99864.56
2023-01-19T22:23:51.210Z,99869.63
2023-01-19T22:26:18.925Z,99878.28
2023-01-19T22:28:46.572Z,99885.97
2023-01-19T22:31:16.555Z,99886.75
2023-01-19T22:33:44.568Z,99900.66
2023-01-19T22:36:23.051Z,99899.84
2023-01-19T22:38:55.614Z,99915.41
2023-01-19T22:41:25.652Z,99907.69
2023-01-19T22:43:55.591Z,99910.16
2023-01-19T22:46:28.462Z,99920.53
2023-01-19T22:48:57.396Z,99920.47
2023-01-19T22:51:25.970Z,99923.88
2023-01-19T22:53:53.759Z,99916.09
2023-01-19T22:56:26.763Z,99928.25
2023-01-19T22:58:54.916Z,99926.63
2023-01-19T23:01:25.445Z,99917.00
2023-01-19T23:03:54.887Z,99913.47
2023-01-19T23:06:25.151Z,99913.34
2023-01-19T23:08:54.532Z,99908.31
2023-01-19T23:11:25.318Z,99907.47
2023-01-19T23:13:53.478Z,99910.13
2023-01-19T23:16:21.351Z,99912.81
2023-01-19T23:18:53.092Z,99905.19
2023-01-19T23:21:22.613Z,99896.47
2023-01-19T23:23:53.923Z,99885.22
2023-01-19T23:26:22.915Z,99870.59
2023-01-19T23:28:58.620Z,99870.66
2023-01-19T23:31:31.678Z,99879.37
2023-01-19T23:34:01.717Z,99878.53
2023-01-19T23:36:31.280Z,99876.78
2023-01-19T23:39:00.634Z,99875.00
2023-01-19T23:41:30.385Z,99881.13
2023-01-19T23:43:58.581Z,99877.63
2023-01-19T23:46:26.478Z,99882.88
2023-01-19T23:48:54.167Z,99877.78
2023-01-19T23:51:24.413Z,99886.28
2023-01-19T23:53:52.785Z,99876.09
2023-01-19T23:56:26.339Z,99876.97
2023-01-19T23:58:56.641Z,99876.03
